sensor_id;sensor_type;location;lat;lon;timestamp;temperature;humidity
47616;DHT22;69146;52.266;7.000;2024-01-30T00:01:30;5.80;99.90
47616;DHT22;69146;52.266;7.000;2024-01-30T00:04:14;5.80;99.90
47616;DHT22;69146;52.266;7.000;2024-01-30T00:06:58;5.90;99.90
47616;DHT22;69146;52.266;7.000;2024-01-30T00:09:43;5.90;99.90
47616;DHT22;69146;52.266;7.000;2024-01-30T00:12:28;6.00;99.90
47616;DHT22;69146;52.266;7.000;2024-01-30T00:15:13;6.10;99.90
47616;DHT22;69146;52.266;7.000;2024-01-30T00:17:57;6.10;99.90
47616;DHT22;69146;52.266;7.000;2024-01-30T00:20:42;6.20;99.90
47616;DHT22;69146;52.266;7.000;2024-01-30T00:23:28;6.20;99.90
47616;DHT22;69146;52.266;7.000;2024-01-30T00:26:12;6.20;99.90
47616;DHT22;69146;52.266;7.000;2024-01-30T00:28:58;6.20;99.90
47616;DHT22;69146;52.266;7.000;2024-01-30T00:31:43;6.30;99.90
47616;DHT22;69146;52.266;7.000;2024-01-30T00:34:27;6.30;99.90
47616;DHT22;69146;52.266;7.000;2024-01-30T00:37:12;6.40;99.90
47616;DHT22;69146;52.266;7.000;2024-01-30T00:39:56;6.40;99.90
47616;DHT22;69146;52.266;7.000;2024-01-30T00:42:41;6.40;99.90
47616;DHT22;69146;52.266;7.000;2024-01-30T00:45:26;6.50;99.90
47616;DHT22;69146;52.266;7.000;2024-01-30T00:48:11;6.50;99.90
47616;DHT22;69146;52.266;7.000;2024-01-30T00:50:55;6.40;99.90
47616;DHT22;69146;52.266;7.000;2024-01-30T00:53:40;6.40;99.90
47616;DHT22;69146;52.266;7.000;2024-01-30T00:56:26;6.40;99.90
47616;DHT22;69146;52.266;7.000;2024-01-30T00:59:10;6.40;99.90
47616;DHT22;69146;52.266;7.000;2024-01-30T01:01:56;6.40;99.90
47616;DHT22;69146;52.266;7.000;2024-01-30T01:04:41;6.50;99.90
47616;DHT22;69146;52.266;7.000;2024-01-30T01:07:25;6.50;99.90
47616;DHT22;69146;52.266;7.000;2024-01-30T01:10:09;6.50;99.90
47616;DHT22;69146;52.266;7.000;2024-01-30T01:12:55;6.50;99.90
47616;DHT22;69146;52.266;7.000;2024-01-30T01:15:39;6.60;99.90
47616;DHT22;69146;52.266;7.000;2024-01-30T01:18:25;6.60;99.90
47616;DHT22;69146;52.266;7.000;2024-01-30T01:21:11;6.60;99.90
47616;DHT22;69146;52.266;7.000;2024-01-30T01:23:55;6.70;99.90
47616;DHT22;69146;52.266;7.000;2024-01-30T01:26:39;6.70;99.90
47616;DHT22;69146;52.266;7.000;2024-01-30T01:29:24;6.70;99.90
47616;DHT22;69146;52.266;7.000;2024-01-30T01:32:15;6.70;99.90
47616;DHT22;69146;52.266;7.000;2024-01-30T01:35:00;6.80;99.90
47616;DHT22;69146;52.266;7.000;2024-01-30T01:37:45;6.80;99.90
47616;DHT22;69146;52.266;7.000;2024-01-30T01:40:29;6.90;99.90
47616;DHT22;69146;52.266;7.000;2024-01-30T01:43:14;6.90;99.90
47616;DHT22;69146;52.266;7.000;2024-01-30T01:45:58;6.90;99.90
47616;DHT22;69146;52.266;7.000;2024-01-30T01:48:43;6.80;99.90
47616;DHT22;69146;52.266;7.000;2024-01-30T01:51:30;6.80;99.90
47616;DHT22;69146;52.266;7.000;2024-01-30T01:54:15;6.80;99.90
47616;DHT22;69146;52.266;7.000;2024-01-30T01:57:00;6.70;99.90
47616;DHT22;69146;52.266;7.000;2024-01-30T01:59:44;6.70;99.90
47616;DHT22;69146;52.266;7.000;2024-01-30T02:02:29;6.60;99.90
47616;DHT22;69146;52.266;7.000;2024-01-30T02:05:14;6.60;99.90
47616;DHT22;69146;52.266;7.000;2024-01-30T02:08:00;6.60;99.90
47616;DHT22;69146;52.266;7.000;2024-01-30T02:10:45;6.50;99.90
47616;DHT22;69146;52.266;7.000;2024-01-30T02:13:29;6.50;99.90
47616;DHT22;69146;52.266;7.000;2024-01-30T02:16:14;6.40;99.90
47616;DHT22;69146;52.266;7.000;2024-01-30T02:18:58;6.40;99.90
47616;DHT22;69146;52.266;7.000;2024-01-30T02:21:44;6.30;99.90
47616;DHT22;69146;52.266;7.000;2024-01-30T02:24:29;6.30;99.90
47616;DHT22;69146;52.266;7.000;2024-01-30T02:27:14;6.10;99.90
47616;DHT22;69146;52.266;7.000;2024-01-30T02:29:58;6.10;99.90
47616;DHT22;69146;52.266;7.000;2024-01-30T02:32:43;6.00;99.90
47616;DHT22;69146;52.266;7.000;2024-01-30T02:35:27;5.90;99.90
47616;DHT22;69146;52.266;7.000;2024-01-30T02:38:13;5.90;99.90
47616;DHT22;69146;52.266;7.000;2024-01-30T02:40:57;5.90;99.90
47616;DHT22;69146;52.266;7.000;2024-01-30T02:43:42;5.80;99.90
47616;DHT22;69146;52.266;7.000;2024-01-30T02:46:26;5.70;99.90
47616;DHT22;69146;52.266;7.000;2024-01-30T02:49:11;5.70;99.90
47616;DHT22;69146;52.266;7.000;2024-01-30T02:51:55;5.60;99.90
47616;DHT22;69146;52.266;7.000;2024-01-30T02:54:42;5.60;99.90
47616;DHT22;69146;52.266;7.000;2024-01-30T02:57:27;5.60;99.90
47616;DHT22;69146;52.266;7.000;2024-01-30T03:00:12;5.60;99.90
47616;DHT22;69146;52.266;7.000;2024-01-30T03:02:57;5.60;99.90
47616;DHT22;69146;52.266;7.000;2024-01-30T03:05:41;5.60;99.90
47616;DHT22;69146;52.266;7.000;2024-01-30T03:08:25;5.60;99.90
47616;DHT22;69146;52.266;7.000;2024-01-30T03:11:11;5.60;99.90
47616;DHT22;69146;52.266;7.000;2024-01-30T03:13:55;5.60;99.90
47616;DHT22;69146;52.266;7.000;2024-01-30T03:16:40;5.60;99.90
47616;DHT22;69146;52.266;7.000;2024-01-30T03:19:24;5.60;99.90
47616;DHT22;69146;52.266;7.000;2024-01-30T03:22:09;5.60;99.90
47616;DHT22;69146;52.266;7.000;2024-01-30T03:24:53;5.60;99.90
47616;DHT22;69146;52.266;7.000;2024-01-30T03:27:39;5.60;99.90
47616;DHT22;69146;52.266;7.000;2024-01-30T03:30:24;5.60;99.90
47616;DHT22;69146;52.266;7.000;2024-01-30T03:33:08;5.50;99.90
47616;DHT22;69146;52.266;7.000;2024-01-30T03:35:52;5.50;99.90
47616;DHT22;69146;52.266;7.000;2024-01-30T03:38:37;5.50;99.90
47616;DHT22;69146;52.266;7.000;2024-01-30T03:41:21;5.40;99.90
47616;DHT22;69146;52.266;7.000;2024-01-30T03:44:07;5.40;99.90
47616;DHT22;69146;52.266;7.000;2024-01-30T03:46:52;5.40;99.90
47616;DHT22;69146;52.266;7.000;2024-01-30T03:49:36;5.40;99.90
47616;DHT22;69146;52.266;7.000;2024-01-30T03:52:21;5.40;99.90
47616;DHT22;69146;52.266;7.000;2024-01-30T03:55:05;5.40;99.90
47616;DHT22;69146;52.266;7.000;2024-01-30T03:57:50;5.40;99.90
47616;DHT22;69146;52.266;7.000;2024-01-30T04:00:36;5.40;99.90
47616;DHT22;69146;52.266;7.000;2024-01-30T04:03:20;5.30;99.90
47616;DHT22;69146;52.266;7.000;2024-01-30T04:06:05;5.30;99.90
47616;DHT22;69146;52.266;7.000;2024-01-30T04:08:49;5.20;99.90
47616;DHT22;69146;52.266;7.000;2024-01-30T04:11:34;5.20;99.90
47616;DHT22;69146;52.266;7.000;2024-01-30T04:14:18;5.20;99.90
47616;DHT22;69146;52.266;7.000;2024-01-30T04:17:04;5.10;99.90
47616;DHT22;69146;52.266;7.000;2024-01-30T04:19:49;5.20;99.90
47616;DHT22;69146;52.266;7.000;2024-01-30T04:22:33;5.30;99.90
47616;DHT22;69146;52.266;7.000;2024-01-30T04:25:18;5.20;99.90
47616;DHT22;69146;52.266;7.000;2024-01-30T04:28:02;5.20;99.90
47616;DHT22;69146;52.266;7.000;2024-01-30T04:30:47;5.10;99.90
47616;DHT22;69146;52.266;7.000;2024-01-30T04:33:33;5.10;99.90
47616;DHT22;69146;52.266;7.000;2024-01-30T04:36:18;5.10;99.90
47616;DHT22;69146;52.266;7.000;2024-01-30T04:39:02;5.00;99.90
47616;DHT22;69146;52.266;7.000;2024-01-30T04:41:48;4.90;99.90
47616;DHT22;69146;52.266;7.000;2024-01-30T04:44:32;4.90;99.90
47616;DHT22;69146;52.266;7.000;2024-01-30T04:47:16;4.90;99.90
47616;DHT22;69146;52.266;7.000;2024-01-30T04:50:02;4.90;99.90
47616;DHT22;69146;52.266;7.000;2024-01-30T04:52:48;4.80;99.90
47616;DHT22;69146;52.266;7.000;2024-01-30T04:55:33;4.90;99.90
47616;DHT22;69146;52.266;7.000;2024-01-30T04:58:17;4.90;99.90
47616;DHT22;69146;52.266;7.000;2024-01-30T05:01:02;5.10;99.90
47616;DHT22;69146;52.266;7.000;2024-01-30T05:03:46;5.20;99.90
47616;DHT22;69146;52.266;7.000;2024-01-30T05:06:32;5.30;99.90
47616;DHT22;69146;52.266;7.000;2024-01-30T05:09:16;5.40;99.90
47616;DHT22;69146;52.266;7.000;2024-01-30T05:12:01;5.60;99.90
47616;DHT22;69146;52.266;7.000;2024-01-30T05:14:45;5.70;99.90
47616;DHT22;69146;52.266;7.000;2024-01-30T05:17:30;5.70;99.90
47616;DHT22;69146;52.266;7.000;2024-01-30T05:20:14;5.80;99.90
47616;DHT22;69146;52.266;7.000;2024-01-30T05:23:00;5.80;99.90
47616;DHT22;69146;52.266;7.000;2024-01-30T05:25:44;5.70;99.90
47616;DHT22;69146;52.266;7.000;2024-01-30T05:28:29;5.70;99.90
47616;DHT22;69146;52.266;7.000;2024-01-30T05:31:14;5.70;99.90
47616;DHT22;69146;52.266;7.000;2024-01-30T05:33:58;5.70;99.90
47616;DHT22;69146;52.266;7.000;2024-01-30T05:36:43;5.80;99.90
47616;DHT22;69146;52.266;7.000;2024-01-30T05:39:29;6.00;99.90
47616;DHT22;69146;52.266;7.000;2024-01-30T05:42:14;6.00;99.90
47616;DHT22;69146;52.266;7.000;2024-01-30T05:44:59;6.10;99.90
47616;DHT22;69146;52.266;7.000;2024-01-30T05:47:44;6.20;99.90
47616;DHT22;69146;52.266;7.000;2024-01-30T05:50:28;6.30;99.90
47616;DHT22;69146;52.266;7.000;2024-01-30T05:53:13;6.40;99.90
47616;DHT22;69146;52.266;7.000;2024-01-30T05:55:58;6.40;99.90
47616;DHT22;69146;52.266;7.000;2024-01-30T05:58:43;6.40;99.90
47616;DHT22;69146;52.266;7.000;2024-01-30T06:01:28;6.50;99.90
47616;DHT22;69146;52.266;7.000;2024-01-30T06:04:13;6.50;99.90
47616;DHT22;69146;52.266;7.000;2024-01-30T06:06:57;6.70;99.90
47616;DHT22;69146;52.266;7.000;2024-01-30T06:09:42;6.70;99.90
47616;DHT22;69146;52.266;7.000;2024-01-30T06:12:28;6.80;99.90
47616;DHT22;69146;52.266;7.000;2024-01-30T06:15:12;6.80;99.90
47616;DHT22;69146;52.266;7.000;2024-01-30T06:17:57;6.90;99.90
47616;DHT22;69146;52.266;7.000;2024-01-30T06:20:42;7.00;99.90
47616;DHT22;69146;52.266;7.000;2024-01-30T06:23:26;7.00;99.90
47616;DHT22;69146;52.266;7.000;2024-01-30T06:26:10;7.00;99.90
47616;DHT22;69146;52.266;7.000;2024-01-30T06:28:56;6.90;99.90
47616;DHT22;69146;52.266;7.000;2024-01-30T06:31:41;7.00;99.90
47616;DHT22;69146;52.266;7.000;2024-01-30T06:34:26;7.10;99.90
47616;DHT22;69146;52.266;7.000;2024-01-30T06:37:10;7.10;99.90
47616;DHT22;69146;52.266;7.000;2024-01-30T06:39:54;7.10;99.90
47616;DHT22;69146;52.266;7.000;2024-01-30T06:42:39;7.10;99.90
47616;DHT22;69146;52.266;7.000;2024-01-30T06:45:25;7.20;99.90
47616;DHT22;69146;52.266;7.000;2024-01-30T06:48:09;7.20;99.90
47616;DHT22;69146;52.266;7.000;2024-01-30T06:50:53;7.30;99.90
47616;DHT22;69146;52.266;7.000;2024-01-30T06:53:38;7.20;99.90
47616;DHT22;69146;52.266;7.000;2024-01-30T06:56:22;7.10;99.90
47616;DHT22;69146;52.266;7.000;2024-01-30T06:59:07;7.20;99.90
47616;DHT22;69146;52.266;7.000;2024-01-30T07:01:53;7.20;99.90
47616;DHT22;69146;52.266;7.000;2024-01-30T07:04:41;7.40;99.90
47616;DHT22;69146;52.266;7.000;2024-01-30T07:07:26;7.40;99.90
47616;DHT22;69146;52.266;7.000;2024-01-30T07:10:11;7.30;99.90
47616;DHT22;69146;52.266;7.000;2024-01-30T07:12:55;7.40;99.90
47616;DHT22;69146;52.266;7.000;2024-01-30T07:15:39;7.40;99.90
47616;DHT22;69146;52.266;7.000;2024-01-30T07:18:25;7.30;99.90
47616;DHT22;69146;52.266;7.000;2024-01-30T07:21:09;7.30;99.90
47616;DHT22;69146;52.266;7.000;2024-01-30T07:23:53;7.40;99.90
47616;DHT22;69146;52.266;7.000;2024-01-30T07:26:38;7.50;99.90
47616;DHT22;69146;52.266;7.000;2024-01-30T07:29:22;7.60;99.90
47616;DHT22;69146;52.266;7.000;2024-01-30T07:32:06;7.50;99.90
47616;DHT22;69146;52.266;7.000;2024-01-30T07:34:52;7.50;99.90
47616;DHT22;69146;52.266;7.000;2024-01-30T07:37:36;7.40;99.90
47616;DHT22;69146;52.266;7.000;2024-01-30T07:40:21;7.50;99.90
47616;DHT22;69146;52.266;7.000;2024-01-30T07:43:05;7.60;99.90
47616;DHT22;69146;52.266;7.000;2024-01-30T07:45:50;7.60;99.90
47616;DHT22;69146;52.266;7.000;2024-01-30T07:48:34;7.60;99.90
47616;DHT22;69146;52.266;7.000;2024-01-30T07:51:20;7.60;99.90
47616;DHT22;69146;52.266;7.000;2024-01-30T07:54:04;7.50;99.90
47616;DHT22;69146;52.266;7.000;2024-01-30T07:56:48;7.60;99.90
47616;DHT22;69146;52.266;7.000;2024-01-30T07:59:33;7.70;99.90
47616;DHT22;69146;52.266;7.000;2024-01-30T08:02:18;7.80;99.90
47616;DHT22;69146;52.266;7.000;2024-01-30T08:05:02;7.80;99.90
47616;DHT22;69146;52.266;7.000;2024-01-30T08:07:49;7.70;99.90
47616;DHT22;69146;52.266;7.000;2024-01-30T08:10:33;7.70;99.90
47616;DHT22;69146;52.266;7.000;2024-01-30T08:13:17;7.80;99.90
47616;DHT22;69146;52.266;7.000;2024-01-30T08:16:02;7.80;99.90
47616;DHT22;69146;52.266;7.000;2024-01-30T08:18:47;7.80;99.90
47616;DHT22;69146;52.266;7.000;2024-01-30T08:21:31;7.70;99.90
47616;DHT22;69146;52.266;7.000;2024-01-30T08:24:21;7.90;99.90
47616;DHT22;69146;52.266;7.000;2024-01-30T08:27:06;7.80;99.90
47616;DHT22;69146;52.266;7.000;2024-01-30T08:29:53;7.90;99.90
47616;DHT22;69146;52.266;7.000;2024-01-30T08:32:38;7.90;99.90
47616;DHT22;69146;52.266;7.000;2024-01-30T08:35:22;8.00;99.90
47616;DHT22;69146;52.266;7.000;2024-01-30T08:38:06;7.90;99.90
47616;DHT22;69146;52.266;7.000;2024-01-30T08:40:52;7.90;99.90
47616;DHT22;69146;52.266;7.000;2024-01-30T08:43:37;8.00;99.90
47616;DHT22;69146;52.266;7.000;2024-01-30T08:46:21;8.10;99.90
47616;DHT22;69146;52.266;7.000;2024-01-30T08:49:06;8.10;99.90
47616;DHT22;69146;52.266;7.000;2024-01-30T08:51:50;8.20;99.90
47616;DHT22;69146;52.266;7.000;2024-01-30T08:54:35;8.20;99.90
47616;DHT22;69146;52.266;7.000;2024-01-30T08:57:21;8.40;99.90
47616;DHT22;69146;52.266;7.000;2024-01-30T09:00:06;8.40;99.90
47616;DHT22;69146;52.266;7.000;2024-01-30T09:02:50;8.50;99.90
47616;DHT22;69146;52.266;7.000;2024-01-30T09:05:35;8.50;99.90
47616;DHT22;69146;52.266;7.000;2024-01-30T09:08:19;8.60;99.90
47616;DHT22;69146;52.266;7.000;2024-01-30T09:11:08;8.70;99.90
47616;DHT22;69146;52.266;7.000;2024-01-30T09:13:54;8.70;99.90
47616;DHT22;69146;52.266;7.000;2024-01-30T09:16:38;8.70;99.90
47616;DHT22;69146;52.266;7.000;2024-01-30T09:19:22;8.80;99.90
47616;DHT22;69146;52.266;7.000;2024-01-30T09:22:07;8.90;99.90
47616;DHT22;69146;52.266;7.000;2024-01-30T09:24:52;8.90;99.90
47616;DHT22;69146;52.266;7.000;2024-01-30T09:27:36;8.90;99.90
47616;DHT22;69146;52.266;7.000;2024-01-30T09:30:22;9.00;99.90
47616;DHT22;69146;52.266;7.000;2024-01-30T09:33:07;9.10;99.90
47616;DHT22;69146;52.266;7.000;2024-01-30T09:35:51;9.10;99.90
47616;DHT22;69146;52.266;7.000;2024-01-30T09:38:36;9.00;99.90
47616;DHT22;69146;52.266;7.000;2024-01-30T09:41:20;9.10;99.90
47616;DHT22;69146;52.266;7.000;2024-01-30T09:44:11;9.00;99.90
47616;DHT22;69146;52.266;7.000;2024-01-30T09:46:57;9.10;99.90
47616;DHT22;69146;52.266;7.000;2024-01-30T09:49:48;9.10;99.90
47616;DHT22;69146;52.266;7.000;2024-01-30T09:52:32;9.10;99.90
47616;DHT22;69146;52.266;7.000;2024-01-30T09:55:17;9.10;99.90
47616;DHT22;69146;52.266;7.000;2024-01-30T09:58:01;9.20;99.90
47616;DHT22;69146;52.266;7.000;2024-01-30T10:00:46;9.20;99.90
47616;DHT22;69146;52.266;7.000;2024-01-30T10:03:31;9.20;99.90
47616;DHT22;69146;52.266;7.000;2024-01-30T10:06:16;9.30;99.90
47616;DHT22;69146;52.266;7.000;2024-01-30T10:09:01;9.30;99.90
47616;DHT22;69146;52.266;7.000;2024-01-30T10:11:46;9.50;99.90
47616;DHT22;69146;52.266;7.000;2024-01-30T10:14:30;9.50;99.90
47616;DHT22;69146;52.266;7.000;2024-01-30T10:17:14;9.60;99.90
47616;DHT22;69146;52.266;7.000;2024-01-30T10:20:03;9.80;99.90
47616;DHT22;69146;52.266;7.000;2024-01-30T10:22:48;9.90;99.90
47616;DHT22;69146;52.266;7.000;2024-01-30T10:25:35;10.10;99.90
47616;DHT22;69146;52.266;7.000;2024-01-30T10:28:20;10.10;99.90
47616;DHT22;69146;52.266;7.000;2024-01-30T10:31:05;10.10;99.90
47616;DHT22;69146;52.266;7.000;2024-01-30T10:33:50;10.10;99.90
47616;DHT22;69146;52.266;7.000;2024-01-30T10:36:37;10.20;99.90
47616;DHT22;69146;52.266;7.000;2024-01-30T10:39:23;10.30;99.90
47616;DHT22;69146;52.266;7.000;2024-01-30T10:42:11;10.30;99.90
47616;DHT22;69146;52.266;7.000;2024-01-30T10:44:56;10.40;99.90
47616;DHT22;69146;52.266;7.000;2024-01-30T10:47:43;10.40;99.90
47616;DHT22;69146;52.266;7.000;2024-01-30T10:50:28;10.30;99.90
47616;DHT22;69146;52.266;7.000;2024-01-30T10:53:15;10.30;99.90
47616;DHT22;69146;52.266;7.000;2024-01-30T10:56:02;10.30;99.90
47616;DHT22;69146;52.266;7.000;2024-01-30T10:58:47;10.20;99.90
47616;DHT22;69146;52.266;7.000;2024-01-30T11:01:32;10.20;99.90
47616;DHT22;69146;52.266;7.000;2024-01-30T11:04:17;10.30;99.90
47616;DHT22;69146;52.266;7.000;2024-01-30T11:07:01;10.30;99.90
47616;DHT22;69146;52.266;7.000;2024-01-30T11:09:51;10.30;99.90
47616;DHT22;69146;52.266;7.000;2024-01-30T11:12:37;10.30;99.90
47616;DHT22;69146;52.266;7.000;2024-01-30T11:15:25;10.30;99.90
47616;DHT22;69146;52.266;7.000;2024-01-30T11:18:10;10.30;99.90
47616;DHT22;69146;52.266;7.000;2024-01-30T11:20:55;10.40;99.90
47616;DHT22;69146;52.266;7.000;2024-01-30T11:23:40;10.40;99.90
47616;DHT22;69146;52.266;7.000;2024-01-30T11:26:28;10.40;99.90
47616;DHT22;69146;52.266;7.000;2024-01-30T11:29:13;10.30;99.90
47616;DHT22;69146;52.266;7.000;2024-01-30T11:31:58;10.40;99.90
47616;DHT22;69146;52.266;7.000;2024-01-30T11:34:45;10.40;99.90
47616;DHT22;69146;52.266;7.000;2024-01-30T11:37:29;10.40;99.90
47616;DHT22;69146;52.266;7.000;2024-01-30T11:40:15;10.60;99.90
47616;DHT22;69146;52.266;7.000;2024-01-30T11:43:02;10.60;99.90
47616;DHT22;69146;52.266;7.000;2024-01-30T11:45:48;10.60;99.90
47616;DHT22;69146;52.266;7.000;2024-01-30T11:48:33;10.60;99.90
47616;DHT22;69146;52.266;7.000;2024-01-30T11:51:17;10.60;99.90
47616;DHT22;69146;52.266;7.000;2024-01-30T11:54:04;10.70;99.90
47616;DHT22;69146;52.266;7.000;2024-01-30T11:56:48;10.70;99.90
47616;DHT22;69146;52.266;7.000;2024-01-30T11:59:34;10.70;99.90
47616;DHT22;69146;52.266;7.000;2024-01-30T12:02:18;10.80;99.90
47616;DHT22;69146;52.266;7.000;2024-01-30T12:05:03;10.80;99.90
47616;DHT22;69146;52.266;7.000;2024-01-30T12:07:48;10.80;99.90
47616;DHT22;69146;52.266;7.000;2024-01-30T12:10:32;10.80;99.90
47616;DHT22;69146;52.266;7.000;2024-01-30T12:13:17;10.70;99.90
47616;DHT22;69146;52.266;7.000;2024-01-30T12:16:02;10.70;99.90
47616;DHT22;69146;52.266;7.000;2024-01-30T12:18:47;10.60;99.90
47616;DHT22;69146;52.266;7.000;2024-01-30T12:21:31;10.70;99.90
47616;DHT22;69146;52.266;7.000;2024-01-30T12:24:16;10.70;99.90
47616;DHT22;69146;52.266;7.000;2024-01-30T12:27:00;10.80;99.90
47616;DHT22;69146;52.266;7.000;2024-01-30T12:29:45;11.00;99.90
47616;DHT22;69146;52.266;7.000;2024-01-30T12:32:31;11.10;99.90
47616;DHT22;69146;52.266;7.000;2024-01-30T12:35:16;11.20;99.90
47616;DHT22;69146;52.266;7.000;2024-01-30T12:38:01;11.20;99.90
47616;DHT22;69146;52.266;7.000;2024-01-30T12:40:46;11.30;99.90
47616;DHT22;69146;52.266;7.000;2024-01-30T12:43:31;11.30;99.90
47616;DHT22;69146;52.266;7.000;2024-01-30T12:46:16;11.30;99.90
47616;DHT22;69146;52.266;7.000;2024-01-30T12:49:02;11.40;99.90
47616;DHT22;69146;52.266;7.000;2024-01-30T12:51:47;11.40;99.90
47616;DHT22;69146;52.266;7.000;2024-01-30T12:54:31;11.30;99.90
47616;DHT22;69146;52.266;7.000;2024-01-30T12:57:16;11.30;99.90
47616;DHT22;69146;52.266;7.000;2024-01-30T13:00:01;11.30;99.90
47616;DHT22;69146;52.266;7.000;2024-01-30T13:02:45;11.20;99.90
47616;DHT22;69146;52.266;7.000;2024-01-30T13:05:32;11.20;99.90
47616;DHT22;69146;52.266;7.000;2024-01-30T13:08:17;11.20;99.90
47616;DHT22;69146;52.266;7.000;2024-01-30T13:11:01;11.20;99.90
47616;DHT22;69146;52.266;7.000;2024-01-30T13:13:46;11.10;99.90
47616;DHT22;69146;52.266;7.000;2024-01-30T13:16:30;11.00;99.90
47616;DHT22;69146;52.266;7.000;2024-01-30T13:19:15;11.10;99.90
47616;DHT22;69146;52.266;7.000;2024-01-30T13:22:00;11.00;99.90
47616;DHT22;69146;52.266;7.000;2024-01-30T13:24:45;10.90;99.90
47616;DHT22;69146;52.266;7.000;2024-01-30T13:27:30;10.90;99.90
47616;DHT22;69146;52.266;7.000;2024-01-30T13:30:21;10.90;99.90
47616;DHT22;69146;52.266;7.000;2024-01-30T13:33:05;10.90;99.90
47616;DHT22;69146;52.266;7.000;2024-01-30T13:35:50;10.90;99.90
47616;DHT22;69146;52.266;7.000;2024-01-30T13:38:35;10.90;99.90
47616;DHT22;69146;52.266;7.000;2024-01-30T13:41:20;10.90;99.90
47616;DHT22;69146;52.266;7.000;2024-01-30T13:44:05;10.80;99.90
47616;DHT22;69146;52.266;7.000;2024-01-30T13:46:50;10.80;99.90
47616;DHT22;69146;52.266;7.000;2024-01-30T13:49:34;10.70;99.90
47616;DHT22;69146;52.266;7.000;2024-01-30T13:52:19;10.70;99.90
47616;DHT22;69146;52.266;7.000;2024-01-30T13:55:05;10.80;99.90
47616;DHT22;69146;52.266;7.000;2024-01-30T13:57:51;10.80;99.90
47616;DHT22;69146;52.266;7.000;2024-01-30T14:00:36;10.90;99.90
47616;DHT22;69146;52.266;7.000;2024-01-30T14:03:20;11.00;99.90
47616;DHT22;69146;52.266;7.000;2024-01-30T14:06:05;11.00;99.90
47616;DHT22;69146;52.266;7.000;2024-01-30T14:08:49;11.10;99.90
47616;DHT22;69146;52.266;7.000;2024-01-30T14:11:35;11.10;99.90
47616;DHT22;69146;52.266;7.000;2024-01-30T14:14:20;11.20;99.90
47616;DHT22;69146;52.266;7.000;2024-01-30T14:17:04;11.10;99.90
47616;DHT22;69146;52.266;7.000;2024-01-30T14:19:51;11.20;99.90
47616;DHT22;69146;52.266;7.000;2024-01-30T14:22:35;11.10;99.90
47616;DHT22;69146;52.266;7.000;2024-01-30T14:25:20;11.10;99.90
47616;DHT22;69146;52.266;7.000;2024-01-30T14:28:05;11.10;99.90
47616;DHT22;69146;52.266;7.000;2024-01-30T14:30:50;11.00;99.90
47616;DHT22;69146;52.266;7.000;2024-01-30T14:33:35;11.00;99.90
47616;DHT22;69146;52.266;7.000;2024-01-30T14:36:20;11.00;99.90
47616;DHT22;69146;52.266;7.000;2024-01-30T14:39:05;10.90;99.90
47616;DHT22;69146;52.266;7.000;2024-01-30T14:41:51;10.80;99.90
47616;DHT22;69146;52.266;7.000;2024-01-30T14:44:36;10.60;99.90
47616;DHT22;69146;52.266;7.000;2024-01-30T14:47:20;10.50;99.90
47616;DHT22;69146;52.266;7.000;2024-01-30T14:50:05;10.50;99.90
47616;DHT22;69146;52.266;7.000;2024-01-30T14:52:49;10.40;99.90
47616;DHT22;69146;52.266;7.000;2024-01-30T14:55:34;10.30;99.90
47616;DHT22;69146;52.266;7.000;2024-01-30T14:58:18;10.10;99.90
47616;DHT22;69146;52.266;7.000;2024-01-30T15:01:03;10.00;99.90
47616;DHT22;69146;52.266;7.000;2024-01-30T15:03:48;9.90;99.90
47616;DHT22;69146;52.266;7.000;2024-01-30T15:06:35;9.80;99.90
47616;DHT22;69146;52.266;7.000;2024-01-30T15:09:20;9.70;99.90
47616;DHT22;69146;52.266;7.000;2024-01-30T15:12:06;9.70;99.90
47616;DHT22;69146;52.266;7.000;2024-01-30T15:14:51;9.70;99.90
47616;DHT22;69146;52.266;7.000;2024-01-30T15:17:36;9.80;99.90
47616;DHT22;69146;52.266;7.000;2024-01-30T15:20:21;9.80;99.90
47616;DHT22;69146;52.266;7.000;2024-01-30T15:23:05;9.80;99.90
47616;DHT22;69146;52.266;7.000;2024-01-30T15:25:50;9.80;99.90
47616;DHT22;69146;52.266;7.000;2024-01-30T15:28:35;9.80;99.90
47616;DHT22;69146;52.266;7.000;2024-01-30T15:31:20;9.80;99.90
47616;DHT22;69146;52.266;7.000;2024-01-30T15:34:06;9.80;99.90
47616;DHT22;69146;52.266;7.000;2024-01-30T15:36:50;9.80;99.90
47616;DHT22;69146;52.266;7.000;2024-01-30T15:39:35;9.70;99.90
47616;DHT22;69146;52.266;7.000;2024-01-30T15:42:20;9.70;99.90
47616;DHT22;69146;52.266;7.000;2024-01-30T15:45:04;9.60;99.90
47616;DHT22;69146;52.266;7.000;2024-01-30T15:47:49;9.50;99.90
47616;DHT22;69146;52.266;7.000;2024-01-30T15:50:35;9.50;99.90
47616;DHT22;69146;52.266;7.000;2024-01-30T15:53:20;9.40;99.90
47616;DHT22;69146;52.266;7.000;2024-01-30T15:56:05;9.40;99.90
47616;DHT22;69146;52.266;7.000;2024-01-30T15:58:50;9.30;99.90
47616;DHT22;69146;52.266;7.000;2024-01-30T16:01:36;9.30;99.90
47616;DHT22;69146;52.266;7.000;2024-01-30T16:04:20;9.30;99.90
47616;DHT22;69146;52.266;7.000;2024-01-30T16:07:06;9.30;99.90
47616;DHT22;69146;52.266;7.000;2024-01-30T16:09:51;9.20;99.90
47616;DHT22;69146;52.266;7.000;2024-01-30T16:12:35;9.10;99.90
47616;DHT22;69146;52.266;7.000;2024-01-30T16:15:19;9.10;99.90
47616;DHT22;69146;52.266;7.000;2024-01-30T16:18:04;9.00;99.90
47616;DHT22;69146;52.266;7.000;2024-01-30T16:20:49;9.00;99.90
47616;DHT22;69146;52.266;7.000;2024-01-30T16:23:34;9.00;99.90
47616;DHT22;69146;52.266;7.000;2024-01-30T16:26:19;9.00;99.90
47616;DHT22;69146;52.266;7.000;2024-01-30T16:29:04;9.00;99.90
47616;DHT22;69146;52.266;7.000;2024-01-30T16:31:48;9.00;99.90
47616;DHT22;69146;52.266;7.000;2024-01-30T16:34:32;8.90;99.90
47616;DHT22;69146;52.266;7.000;2024-01-30T16:37:17;8.90;99.90
47616;DHT22;69146;52.266;7.000;2024-01-30T16:40:03;8.80;99.90
47616;DHT22;69146;52.266;7.000;2024-01-30T16:42:48;8.80;99.90
47616;DHT22;69146;52.266;7.000;2024-01-30T16:45:33;8.70;99.90
47616;DHT22;69146;52.266;7.000;2024-01-30T16:48:17;8.70;99.90
47616;DHT22;69146;52.266;7.000;2024-01-30T16:51:04;8.60;99.90
47616;DHT22;69146;52.266;7.000;2024-01-30T16:53:49;8.60;99.90
47616;DHT22;69146;52.266;7.000;2024-01-30T16:56:35;8.60;99.90
47616;DHT22;69146;52.266;7.000;2024-01-30T16:59:19;8.60;99.90
47616;DHT22;69146;52.266;7.000;2024-01-30T17:02:04;8.60;99.90
47616;DHT22;69146;52.266;7.000;2024-01-30T17:04:48;8.50;99.90
47616;DHT22;69146;52.266;7.000;2024-01-30T17:07:33;8.50;99.90
47616;DHT22;69146;52.266;7.000;2024-01-30T17:10:19;8.50;99.90
47616;DHT22;69146;52.266;7.000;2024-01-30T17:13:05;8.40;99.90
47616;DHT22;69146;52.266;7.000;2024-01-30T17:15:49;8.50;99.90
47616;DHT22;69146;52.266;7.000;2024-01-30T17:18:34;8.40;99.90
47616;DHT22;69146;52.266;7.000;2024-01-30T17:21:20;8.40;99.90
47616;DHT22;69146;52.266;7.000;2024-01-30T17:24:05;8.30;99.90
47616;DHT22;69146;52.266;7.000;2024-01-30T17:26:51;8.20;99.90
47616;DHT22;69146;52.266;7.000;2024-01-30T17:29:37;8.20;99.90
47616;DHT22;69146;52.266;7.000;2024-01-30T17:32:21;8.10;99.90
47616;DHT22;69146;52.266;7.000;2024-01-30T17:35:09;8.10;99.90